This is the latest recevied weather packets stored in our database for station/object WBGG. If no packets are shown the sender has not sent any weather packets the latest 10 day(s).
| Time | Temp. | Humidity | Pressure | Rain* | Wind** | Luminosity | Snow |
|---|---|---|---|---|---|---|---|
| 1777929005 | 23.89° C | 94% | 1009 hPa | - | - | - | - |
| 1777920587 | 23.89° C | 94% | 1010 hPa | - | - | - | - |
| 1777916388 | 23.89° C | 10% | - | - | - | - | - |
| 1777912787 | 23.89° C | 10% | - | - | - | - | - |
| 1777909186 | 23.89° C | 10% | - | - | - | - | - |
| 1777905586 | 25° C | 88% | 1011 hPa | - | - | - | - |
| 1777903808 | 25° C | 94% | 1011 hPa | - | - | - | - |
| 1777900205 | 25° C | 88% | 1010 hPa | - | - | - | - |
| 1777896604 | 25° C | 88% | 1010 hPa | - | - | - | - |
| 1777893010 | 25.56° C | 83% | 1009 hPa | - | - | - | - |
| 1777891186 | 25.56° C | 83% | 1009 hPa | - | - | - | - |
| 1777889405 | 26.67° C | 78% | 1008 hPa | - | - | - | - |
| 1777887587 | 27.78° C | 78% | 1008 hPa | - | - | - | - |
| 1777885804 | 27.78° C | 78% | 1008 hPa | - | - | - | - |
| 1777883985 | 30.56° C | 66% | 1007 hPa | - | - | - | - |
| 1777882203 | 32.78° C | 62% | 1007 hPa | - | - | - | - |
| 1777880386 | 32.78° C | 62% | 1007 hPa | - | - | - | - |
| 1777878609 | 32.78° C | 62% | 1007 hPa | - | - | - | - |
| 1777876789 | 31.67° C | 66% | 1008 hPa | - | - | - | - |
| 1777875004 | 31.67° C | 66% | 1008 hPa | - | - | - | - |
| 1777873187 | 30.56° C | 74% | 1009 hPa | - | - | - | - |
| 1777871403 | 30° C | 79% | 1010 hPa | - | - | - | - |
| 1777869585 | 31.67° C | 62% | 1010 hPa | - | - | - | - |
| 1777867803 | 30.56° C | 70% | 1011 hPa | - | - | - | - |
| 1777835403 | 25° C | 94% | 1009 hPa | - | - | - | - |
* Rain since midnight (hover to see other rain measurements)
** Current wind speed in m/s (hover to see current wind gust speed)